sensor_id;sensor_type;location;lat;lon;timestamp;P1;durP1;ratioP1;P2;durP2;ratioP2
72109;SDS011;59983;52.010;5.420;2023-09-12T00:00:05;38.83;;;25.92;;
72109;SDS011;59983;52.010;5.420;2023-09-12T00:02:32;38.28;;;25.33;;
72109;SDS011;59983;52.010;5.420;2023-09-12T00:04:58;40.22;;;26.33;;
72109;SDS011;59983;52.010;5.420;2023-09-12T00:07:25;37.90;;;26.00;;
72109;SDS011;59983;52.010;5.420;2023-09-12T00:09:52;37.10;;;25.58;;
72109;SDS011;59983;52.010;5.420;2023-09-12T00:12:21;42.90;;;26.13;;
72109;SDS011;59983;52.010;5.420;2023-09-12T00:14:49;37.50;;;24.30;;
72109;SDS011;59983;52.010;5.420;2023-09-12T00:17:15;36.33;;;24.92;;
72109;SDS011;59983;52.010;5.420;2023-09-12T00:19:42;34.53;;;24.33;;
72109;SDS011;59983;52.010;5.420;2023-09-12T00:22:09;35.08;;;23.65;;
72109;SDS011;59983;52.010;5.420;2023-09-12T00:24:36;32.90;;;23.60;;
72109;SDS011;59983;52.010;5.420;2023-09-12T00:27:04;37.97;;;24.10;;
72109;SDS011;59983;52.010;5.420;2023-09-12T00:29:32;33.97;;;23.73;;
72109;SDS011;59983;52.010;5.420;2023-09-12T00:31:59;35.13;;;25.17;;
72109;SDS011;59983;52.010;5.420;2023-09-12T00:34:25;33.92;;;23.88;;
72109;SDS011;59983;52.010;5.420;2023-09-12T00:36:52;35.38;;;24.23;;
72109;SDS011;59983;52.010;5.420;2023-09-12T00:39:18;34.88;;;24.02;;
72109;SDS011;59983;52.010;5.420;2023-09-12T00:41:45;33.05;;;24.42;;
72109;SDS011;59983;52.010;5.420;2023-09-12T00:44:12;31.23;;;23.30;;
72109;SDS011;59983;52.010;5.420;2023-09-12T00:46:38;30.90;;;20.38;;
72109;SDS011;59983;52.010;5.420;2023-09-12T00:49:06;24.45;;;20.20;;
72109;SDS011;59983;52.010;5.420;2023-09-12T00:51:35;24.70;;;19.80;;
72109;SDS011;59983;52.010;5.420;2023-09-12T00:54:03;23.58;;;18.33;;
72109;SDS011;59983;52.010;5.420;2023-09-12T00:56:30;23.80;;;18.17;;
72109;SDS011;59983;52.010;5.420;2023-09-12T00:58:57;26.75;;;19.70;;
72109;SDS011;59983;52.010;5.420;2023-09-12T01:01:24;32.72;;;16.23;;
72109;SDS011;59983;52.010;5.420;2023-09-12T01:03:50;17.58;;;15.73;;
72109;SDS011;59983;52.010;5.420;2023-09-12T01:06:21;17.50;;;15.60;;
72109;SDS011;59983;52.010;5.420;2023-09-12T01:08:52;16.70;;;15.00;;
72109;SDS011;59983;52.010;5.420;2023-09-12T01:11:19;17.05;;;15.30;;
72109;SDS011;59983;52.010;5.420;2023-09-12T01:13:46;17.58;;;15.77;;
72109;SDS011;59983;52.010;5.420;2023-09-12T01:16:13;19.90;;;16.63;;
72109;SDS011;59983;52.010;5.420;2023-09-12T01:18:39;17.50;;;15.80;;
72109;SDS011;59983;52.010;5.420;2023-09-12T01:23:50;16.48;;;14.73;;
72109;SDS011;59983;52.010;5.420;2023-09-12T01:28:55;21.40;;;15.73;;
72109;SDS011;59983;52.010;5.420;2023-09-12T01:31:24;19.60;;;16.00;;
72109;SDS011;59983;52.010;5.420;2023-09-12T01:33:55;20.00;;;16.47;;
72109;SDS011;59983;52.010;5.420;2023-09-12T01:36:24;19.55;;;16.65;;
72109;SDS011;59983;52.010;5.420;2023-09-12T01:38:50;19.13;;;15.65;;
72109;SDS011;59983;52.010;5.420;2023-09-12T01:41:17;20.80;;;15.73;;
72109;SDS011;59983;52.010;5.420;2023-09-12T01:43:45;27.98;;;16.65;;
72109;SDS011;59983;52.010;5.420;2023-09-12T01:46:14;22.53;;;17.40;;
72109;SDS011;59983;52.010;5.420;2023-09-12T01:48:43;17.73;;;15.40;;
72109;SDS011;59983;52.010;5.420;2023-09-12T01:51:11;18.48;;;14.93;;
72109;SDS011;59983;52.010;5.420;2023-09-12T01:53:38;15.50;;;14.00;;
72109;SDS011;59983;52.010;5.420;2023-09-12T01:56:05;28.20;;;13.05;;
72109;SDS011;59983;52.010;5.420;2023-09-12T01:58:32;24.73;;;14.70;;
72109;SDS011;59983;52.010;5.420;2023-09-12T02:01:00;14.48;;;13.10;;
72109;SDS011;59983;52.010;5.420;2023-09-12T02:03:26;18.20;;;13.23;;
72109;SDS011;59983;52.010;5.420;2023-09-12T02:05:53;14.23;;;13.00;;
72109;SDS011;59983;52.010;5.420;2023-09-12T02:08:20;14.80;;;13.38;;
72109;SDS011;59983;52.010;5.420;2023-09-12T02:10:46;13.47;;;12.33;;
72109;SDS011;59983;52.010;5.420;2023-09-12T02:13:13;15.32;;;13.82;;
72109;SDS011;59983;52.010;5.420;2023-09-12T02:15:39;15.60;;;14.10;;
72109;SDS011;59983;52.010;5.420;2023-09-12T02:18:06;20.30;;;15.98;;
72109;SDS011;59983;52.010;5.420;2023-09-12T02:20:37;16.58;;;14.13;;
72109;SDS011;59983;52.010;5.420;2023-09-12T02:23:04;18.37;;;14.47;;
72109;SDS011;59983;52.010;5.420;2023-09-12T02:25:31;33.60;;;17.15;;
72109;SDS011;59983;52.010;5.420;2023-09-12T02:27:58;42.05;;;16.73;;
72109;SDS011;59983;52.010;5.420;2023-09-12T02:30:24;73.25;;;18.92;;
72109;SDS011;59983;52.010;5.420;2023-09-12T02:32:51;34.45;;;15.48;;
72109;SDS011;59983;52.010;5.420;2023-09-12T02:35:17;37.87;;;15.27;;
72109;SDS011;59983;52.010;5.420;2023-09-12T02:37:44;28.67;;;15.60;;
72109;SDS011;59983;52.010;5.420;2023-09-12T02:40:11;32.03;;;15.70;;
72109;SDS011;59983;52.010;5.420;2023-09-12T02:42:38;26.90;;;15.40;;
72109;SDS011;59983;52.010;5.420;2023-09-12T02:45:05;35.13;;;16.67;;
72109;SDS011;59983;52.010;5.420;2023-09-12T02:47:32;38.00;;;17.83;;
72109;SDS011;59983;52.010;5.420;2023-09-12T02:49:58;54.00;;;16.83;;
72109;SDS011;59983;52.010;5.420;2023-09-12T02:52:25;38.47;;;18.15;;
72109;SDS011;59983;52.010;5.420;2023-09-12T02:54:51;16.80;;;14.82;;
72109;SDS011;59983;52.010;5.420;2023-09-12T02:57:18;21.85;;;16.67;;
72109;SDS011;59983;52.010;5.420;2023-09-12T02:59:44;25.27;;;15.70;;
72109;SDS011;59983;52.010;5.420;2023-09-12T03:02:11;27.77;;;16.25;;
72109;SDS011;59983;52.010;5.420;2023-09-12T03:04:38;32.15;;;17.33;;
72109;SDS011;59983;52.010;5.420;2023-09-12T03:07:04;33.97;;;16.80;;
72109;SDS011;59983;52.010;5.420;2023-09-12T03:09:31;33.63;;;16.20;;
72109;SDS011;59983;52.010;5.420;2023-09-12T03:11:57;28.07;;;15.37;;
72109;SDS011;59983;52.010;5.420;2023-09-12T03:14:24;39.05;;;17.17;;
72109;SDS011;59983;52.010;5.420;2023-09-12T03:16:53;35.35;;;16.38;;
72109;SDS011;59983;52.010;5.420;2023-09-12T03:19:20;22.95;;;16.42;;
72109;SDS011;59983;52.010;5.420;2023-09-12T03:21:46;33.08;;;17.70;;
72109;SDS011;59983;52.010;5.420;2023-09-12T03:24:13;72.80;;;17.63;;
72109;SDS011;59983;52.010;5.420;2023-09-12T03:26:39;38.33;;;18.08;;
72109;SDS011;59983;52.010;5.420;2023-09-12T03:29:06;32.40;;;17.52;;
72109;SDS011;59983;52.010;5.420;2023-09-12T03:31:33;26.50;;;17.20;;
72109;SDS011;59983;52.010;5.420;2023-09-12T03:34:01;18.30;;;16.27;;
72109;SDS011;59983;52.010;5.420;2023-09-12T03:36:28;24.83;;;18.07;;
72109;SDS011;59983;52.010;5.420;2023-09-12T03:38:54;70.47;;;19.63;;
72109;SDS011;59983;52.010;5.420;2023-09-12T03:41:21;52.70;;;18.65;;
72109;SDS011;59983;52.010;5.420;2023-09-12T03:43:55;38.20;;;19.90;;
72109;SDS011;59983;52.010;5.420;2023-09-12T03:46:21;26.30;;;16.73;;
72109;SDS011;59983;52.010;5.420;2023-09-12T03:48:48;22.63;;;17.17;;
72109;SDS011;59983;52.010;5.420;2023-09-12T03:51:15;25.20;;;17.35;;
72109;SDS011;59983;52.010;5.420;2023-09-12T03:53:42;24.23;;;17.70;;
72109;SDS011;59983;52.010;5.420;2023-09-12T03:56:08;26.73;;;16.98;;
72109;SDS011;59983;52.010;5.420;2023-09-12T03:58:39;25.25;;;16.17;;
72109;SDS011;59983;52.010;5.420;2023-09-12T04:01:06;28.93;;;18.03;;
72109;SDS011;59983;52.010;5.420;2023-09-12T04:03:33;32.08;;;16.52;;
72109;SDS011;59983;52.010;5.420;2023-09-12T04:06:00;73.40;;;15.70;;
72109;SDS011;59983;52.010;5.420;2023-09-12T04:08:26;50.70;;;16.52;;
72109;SDS011;59983;52.010;5.420;2023-09-12T04:10:53;22.23;;;16.20;;
72109;SDS011;59983;52.010;5.420;2023-09-12T04:13:19;32.10;;;17.63;;
72109;SDS011;59983;52.010;5.420;2023-09-12T04:15:46;26.15;;;16.30;;
72109;SDS011;59983;52.010;5.420;2023-09-12T04:18:13;33.67;;;16.60;;
72109;SDS011;59983;52.010;5.420;2023-09-12T04:20:39;23.00;;;16.25;;
72109;SDS011;59983;52.010;5.420;2023-09-12T04:23:06;20.52;;;16.30;;
72109;SDS011;59983;52.010;5.420;2023-09-12T04:25:32;25.53;;;16.43;;
72109;SDS011;59983;52.010;5.420;2023-09-12T04:27:59;29.75;;;17.10;;
72109;SDS011;59983;52.010;5.420;2023-09-12T04:30:26;30.38;;;15.98;;
72109;SDS011;59983;52.010;5.420;2023-09-12T04:32:52;32.58;;;15.52;;
72109;SDS011;59983;52.010;5.420;2023-09-12T04:35:19;19.00;;;15.70;;
72109;SDS011;59983;52.010;5.420;2023-09-12T04:37:47;29.77;;;16.30;;
72109;SDS011;59983;52.010;5.420;2023-09-12T04:40:14;34.10;;;15.45;;
72109;SDS011;59983;52.010;5.420;2023-09-12T04:42:40;33.53;;;17.40;;
72109;SDS011;59983;52.010;5.420;2023-09-12T04:45:07;38.33;;;17.20;;
72109;SDS011;59983;52.010;5.420;2023-09-12T04:47:33;41.33;;;17.27;;
72109;SDS011;59983;52.010;5.420;2023-09-12T04:50:00;25.80;;;16.83;;
72109;SDS011;59983;52.010;5.420;2023-09-12T04:52:28;34.83;;;15.95;;
72109;SDS011;59983;52.010;5.420;2023-09-12T04:54:57;37.88;;;16.08;;
72109;SDS011;59983;52.010;5.420;2023-09-12T04:57:24;25.05;;;17.05;;
72109;SDS011;59983;52.010;5.420;2023-09-12T04:59:51;39.65;;;18.58;;
72109;SDS011;59983;52.010;5.420;2023-09-12T05:02:18;30.47;;;17.77;;
72109;SDS011;59983;52.010;5.420;2023-09-12T05:04:45;60.63;;;19.50;;
72109;SDS011;59983;52.010;5.420;2023-09-12T05:07:12;27.77;;;19.92;;
72109;SDS011;59983;52.010;5.420;2023-09-12T05:09:38;50.10;;;18.83;;
72109;SDS011;59983;52.010;5.420;2023-09-12T05:12:05;42.65;;;18.13;;
72109;SDS011;59983;52.010;5.420;2023-09-12T05:14:32;61.43;;;18.27;;
72109;SDS011;59983;52.010;5.420;2023-09-12T05:16:58;45.58;;;18.65;;
72109;SDS011;59983;52.010;5.420;2023-09-12T05:19:25;36.65;;;18.77;;
72109;SDS011;59983;52.010;5.420;2023-09-12T05:21:52;54.83;;;17.75;;
72109;SDS011;59983;52.010;5.420;2023-09-12T05:24:19;26.92;;;19.08;;
72109;SDS011;59983;52.010;5.420;2023-09-12T05:26:46;36.70;;;19.23;;
72109;SDS011;59983;52.010;5.420;2023-09-12T05:29:14;28.90;;;19.42;;
72109;SDS011;59983;52.010;5.420;2023-09-12T05:31:40;40.65;;;20.60;;
72109;SDS011;59983;52.010;5.420;2023-09-12T05:34:07;33.70;;;20.58;;
72109;SDS011;59983;52.010;5.420;2023-09-12T05:36:33;45.65;;;21.95;;
72109;SDS011;59983;52.010;5.420;2023-09-12T05:39:00;34.50;;;20.63;;
72109;SDS011;59983;52.010;5.420;2023-09-12T05:41:26;35.28;;;21.33;;
72109;SDS011;59983;52.010;5.420;2023-09-12T05:43:53;30.48;;;20.50;;
72109;SDS011;59983;52.010;5.420;2023-09-12T05:46:19;27.58;;;20.80;;
72109;SDS011;59983;52.010;5.420;2023-09-12T05:48:46;26.38;;;20.02;;
72109;SDS011;59983;52.010;5.420;2023-09-12T05:51:13;37.53;;;21.77;;
72109;SDS011;59983;52.010;5.420;2023-09-12T05:53:39;28.85;;;20.30;;
72109;SDS011;59983;52.010;5.420;2023-09-12T05:56:06;31.70;;;21.52;;
72109;SDS011;59983;52.010;5.420;2023-09-12T05:58:32;24.85;;;20.95;;
72109;SDS011;59983;52.010;5.420;2023-09-12T06:01:00;29.63;;;21.02;;
72109;SDS011;59983;52.010;5.420;2023-09-12T06:03:27;30.27;;;22.03;;
72109;SDS011;59983;52.010;5.420;2023-09-12T06:05:53;30.20;;;22.10;;
72109;SDS011;59983;52.010;5.420;2023-09-12T06:08:20;29.83;;;22.20;;
72109;SDS011;59983;52.010;5.420;2023-09-12T06:10:47;40.60;;;22.02;;
72109;SDS011;59983;52.010;5.420;2023-09-12T06:13:15;27.77;;;20.98;;
72109;SDS011;59983;52.010;5.420;2023-09-12T06:15:41;28.33;;;22.13;;
72109;SDS011;59983;52.010;5.420;2023-09-12T06:18:08;36.70;;;21.75;;
72109;SDS011;59983;52.010;5.420;2023-09-12T06:20:35;26.40;;;21.35;;
72109;SDS011;59983;52.010;5.420;2023-09-12T06:23:01;28.00;;;22.05;;
72109;SDS011;59983;52.010;5.420;2023-09-12T06:25:29;24.08;;;21.40;;
72109;SDS011;59983;52.010;5.420;2023-09-12T06:27:56;23.23;;;20.63;;
72109;SDS011;59983;52.010;5.420;2023-09-12T06:30:22;24.08;;;20.27;;
72109;SDS011;59983;52.010;5.420;2023-09-12T06:32:49;23.23;;;20.58;;
72109;SDS011;59983;52.010;5.420;2023-09-12T06:35:15;22.75;;;20.33;;
72109;SDS011;59983;52.010;5.420;2023-09-12T06:37:43;25.40;;;21.20;;
72109;SDS011;59983;52.010;5.420;2023-09-12T06:40:10;25.57;;;21.30;;
72109;SDS011;59983;52.010;5.420;2023-09-12T06:42:36;26.25;;;22.50;;
72109;SDS011;59983;52.010;5.420;2023-09-12T06:45:03;25.63;;;21.95;;
72109;SDS011;59983;52.010;5.420;2023-09-12T06:47:30;22.73;;;20.27;;
72109;SDS011;59983;52.010;5.420;2023-09-12T06:49:56;29.08;;;22.88;;
72109;SDS011;59983;52.010;5.420;2023-09-12T06:52:23;27.77;;;21.57;;
72109;SDS011;59983;52.010;5.420;2023-09-12T06:54:50;28.10;;;22.80;;
72109;SDS011;59983;52.010;5.420;2023-09-12T06:57:16;29.70;;;22.25;;
72109;SDS011;59983;52.010;5.420;2023-09-12T06:59:43;23.63;;;19.50;;
72109;SDS011;59983;52.010;5.420;2023-09-12T07:02:10;30.27;;;22.63;;
72109;SDS011;59983;52.010;5.420;2023-09-12T07:04:39;31.70;;;21.30;;
72109;SDS011;59983;52.010;5.420;2023-09-12T07:07:05;31.88;;;23.17;;
72109;SDS011;59983;52.010;5.420;2023-09-12T07:09:32;29.80;;;20.80;;
72109;SDS011;59983;52.010;5.420;2023-09-12T07:12:00;33.25;;;21.98;;
72109;SDS011;59983;52.010;5.420;2023-09-12T07:14:26;30.23;;;21.70;;
72109;SDS011;59983;52.010;5.420;2023-09-12T07:16:53;26.63;;;20.30;;
72109;SDS011;59983;52.010;5.420;2023-09-12T07:19:19;27.85;;;22.50;;
72109;SDS011;59983;52.010;5.420;2023-09-12T07:21:46;28.52;;;21.00;;
72109;SDS011;59983;52.010;5.420;2023-09-12T07:24:13;28.45;;;21.27;;
72109;SDS011;59983;52.010;5.420;2023-09-12T07:26:39;32.65;;;23.33;;
72109;SDS011;59983;52.010;5.420;2023-09-12T07:29:06;28.80;;;21.43;;
72109;SDS011;59983;52.010;5.420;2023-09-12T07:31:33;31.70;;;21.25;;
72109;SDS011;59983;52.010;5.420;2023-09-12T07:33:59;30.77;;;23.48;;
72109;SDS011;59983;52.010;5.420;2023-09-12T07:36:26;34.97;;;23.33;;
72109;SDS011;59983;52.010;5.420;2023-09-12T07:38:53;29.23;;;21.48;;
72109;SDS011;59983;52.010;5.420;2023-09-12T07:41:19;31.80;;;21.30;;
72109;SDS011;59983;52.010;5.420;2023-09-12T07:43:46;31.20;;;22.90;;
72109;SDS011;59983;52.010;5.420;2023-09-12T07:46:12;34.67;;;23.77;;
72109;SDS011;59983;52.010;5.420;2023-09-12T07:48:39;33.40;;;21.48;;
72109;SDS011;59983;52.010;5.420;2023-09-12T07:51:12;31.67;;;22.15;;
72109;SDS011;59983;52.010;5.420;2023-09-12T07:53:44;32.37;;;22.30;;
72109;SDS011;59983;52.010;5.420;2023-09-12T07:56:11;32.92;;;20.15;;
72109;SDS011;59983;52.010;5.420;2023-09-12T07:58:38;35.17;;;21.42;;
72109;SDS011;59983;52.010;5.420;2023-09-12T08:01:05;33.67;;;21.83;;
72109;SDS011;59983;52.010;5.420;2023-09-12T08:03:33;34.65;;;21.65;;
72109;SDS011;59983;52.010;5.420;2023-09-12T08:06:01;37.13;;;23.40;;
72109;SDS011;59983;52.010;5.420;2023-09-12T08:08:29;41.50;;;24.58;;
72109;SDS011;59983;52.010;5.420;2023-09-12T08:10:57;45.97;;;26.05;;
72109;SDS011;59983;52.010;5.420;2023-09-12T08:13:27;44.30;;;26.17;;
72109;SDS011;59983;52.010;5.420;2023-09-12T08:15:55;44.72;;;25.08;;
72109;SDS011;59983;52.010;5.420;2023-09-12T08:20:52;46.33;;;26.05;;
72109;SDS011;59983;52.010;5.420;2023-09-12T08:23:19;44.75;;;26.42;;
72109;SDS011;59983;52.010;5.420;2023-09-12T08:25:46;49.00;;;26.58;;
72109;SDS011;59983;52.010;5.420;2023-09-12T08:28:12;44.08;;;27.10;;
72109;SDS011;59983;52.010;5.420;2023-09-12T08:30:39;52.53;;;28.40;;
72109;SDS011;59983;52.010;5.420;2023-09-12T08:33:05;48.58;;;28.38;;
72109;SDS011;59983;52.010;5.420;2023-09-12T08:35:33;48.70;;;28.27;;
72109;SDS011;59983;52.010;5.420;2023-09-12T08:37:59;51.83;;;28.80;;
72109;SDS011;59983;52.010;5.420;2023-09-12T08:40:26;50.80;;;29.90;;
72109;SDS011;59983;52.010;5.420;2023-09-12T08:42:53;45.13;;;26.43;;
72109;SDS011;59983;52.010;5.420;2023-09-12T08:45:21;47.85;;;27.95;;
72109;SDS011;59983;52.010;5.420;2023-09-12T08:47:52;53.00;;;29.25;;
72109;SDS011;59983;52.010;5.420;2023-09-12T08:50:21;47.58;;;28.15;;
72109;SDS011;59983;52.010;5.420;2023-09-12T08:52:50;50.58;;;29.70;;
72109;SDS011;59983;52.010;5.420;2023-09-12T08:55:31;49.93;;;29.63;;
72109;SDS011;59983;52.010;5.420;2023-09-12T08:57:59;54.00;;;29.27;;
72109;SDS011;59983;52.010;5.420;2023-09-12T09:00:29;57.00;;;31.85;;
72109;SDS011;59983;52.010;5.420;2023-09-12T09:02:56;48.15;;;28.27;;
72109;SDS011;59983;52.010;5.420;2023-09-12T09:05:25;51.83;;;30.67;;
72109;SDS011;59983;52.010;5.420;2023-09-12T09:07:57;52.17;;;30.83;;
72109;SDS011;59983;52.010;5.420;2023-09-12T09:10:25;48.85;;;29.33;;
72109;SDS011;59983;52.010;5.420;2023-09-12T09:13:15;52.55;;;28.83;;
72109;SDS011;59983;52.010;5.420;2023-09-12T09:15:41;46.42;;;27.27;;
72109;SDS011;59983;52.010;5.420;2023-09-12T09:18:09;45.10;;;27.67;;
72109;SDS011;59983;52.010;5.420;2023-09-12T09:20:37;50.20;;;28.60;;
72109;SDS011;59983;52.010;5.420;2023-09-12T09:23:05;55.95;;;31.05;;
72109;SDS011;59983;52.010;5.420;2023-09-12T09:25:36;48.65;;;29.40;;
72109;SDS011;59983;52.010;5.420;2023-09-12T09:28:19;44.92;;;27.52;;
72109;SDS011;59983;52.010;5.420;2023-09-12T09:30:47;49.58;;;29.58;;
72109;SDS011;59983;52.010;5.420;2023-09-12T09:33:17;53.93;;;31.90;;
72109;SDS011;59983;52.010;5.420;2023-09-12T09:35:48;53.72;;;30.55;;
72109;SDS011;59983;52.010;5.420;2023-09-12T09:38:15;46.22;;;29.73;;
72109;SDS011;59983;52.010;5.420;2023-09-12T09:40:45;51.03;;;30.80;;
72109;SDS011;59983;52.010;5.420;2023-09-12T09:43:12;51.67;;;31.88;;
72109;SDS011;59983;52.010;5.420;2023-09-12T09:45:44;47.30;;;26.57;;
72109;SDS011;59983;52.010;5.420;2023-09-12T09:48:22;40.25;;;26.42;;
72109;SDS011;59983;52.010;5.420;2023-09-12T09:50:52;46.83;;;28.85;;
72109;SDS011;59983;52.010;5.420;2023-09-12T09:53:26;47.05;;;30.52;;
72109;SDS011;59983;52.010;5.420;2023-09-12T09:55:53;47.03;;;30.23;;
72109;SDS011;59983;52.010;5.420;2023-09-12T09:58:34;46.50;;;29.80;;
72109;SDS011;59983;52.010;5.420;2023-09-12T10:01:01;45.28;;;28.38;;
72109;SDS011;59983;52.010;5.420;2023-09-12T10:03:29;44.13;;;27.60;;
72109;SDS011;59983;52.010;5.420;2023-09-12T10:06:01;46.28;;;28.00;;
72109;SDS011;59983;52.010;5.420;2023-09-12T10:08:31;40.40;;;25.80;;
72109;SDS011;59983;52.010;5.420;2023-09-12T10:10:58;40.47;;;25.83;;
72109;SDS011;59983;52.010;5.420;2023-09-12T10:13:26;41.45;;;26.13;;
72109;SDS011;59983;52.010;5.420;2023-09-12T10:15:58;45.53;;;28.33;;
72109;SDS011;59983;52.010;5.420;2023-09-12T10:18:27;39.92;;;27.35;;
72109;SDS011;59983;52.010;5.420;2023-09-12T10:20:58;44.97;;;27.25;;
72109;SDS011;59983;52.010;5.420;2023-09-12T10:23:34;43.40;;;27.37;;
72109;SDS011;59983;52.010;5.420;2023-09-12T10:26:12;44.15;;;27.90;;
72109;SDS011;59983;52.010;5.420;2023-09-12T10:28:42;41.63;;;26.63;;
72109;SDS011;59983;52.010;5.420;2023-09-12T10:31:11;50.25;;;29.85;;
72109;SDS011;59983;52.010;5.420;2023-09-12T10:33:39;42.58;;;27.10;;
72109;SDS011;59983;52.010;5.420;2023-09-12T10:36:08;41.63;;;26.63;;
72109;SDS011;59983;52.010;5.420;2023-09-12T10:38:40;43.67;;;27.33;;
72109;SDS011;59983;52.010;5.420;2023-09-12T10:41:12;44.22;;;26.42;;
72109;SDS011;59983;52.010;5.420;2023-09-12T10:43:43;37.88;;;24.23;;
72109;SDS011;59983;52.010;5.420;2023-09-12T10:46:16;40.75;;;26.38;;
72109;SDS011;59983;52.010;5.420;2023-09-12T10:48:43;43.70;;;25.97;;
72109;SDS011;59983;52.010;5.420;2023-09-12T10:51:11;38.30;;;25.00;;
72109;SDS011;59983;52.010;5.420;2023-09-12T10:53:45;39.60;;;24.38;;
72109;SDS011;59983;52.010;5.420;2023-09-12T10:56:16;45.35;;;23.67;;
72109;SDS011;59983;52.010;5.420;2023-09-12T11:01:42;47.50;;;28.70;;
72109;SDS011;59983;52.010;5.420;2023-09-12T11:06:46;46.88;;;28.80;;
72109;SDS011;59983;52.010;5.420;2023-09-12T11:11:44;51.35;;;28.85;;
72109;SDS011;59983;52.010;5.420;2023-09-12T11:14:15;45.50;;;27.80;;
72109;SDS011;59983;52.010;5.420;2023-09-12T11:19:44;44.15;;;25.98;;
72109;SDS011;59983;52.010;5.420;2023-09-12T11:25:01;37.92;;;24.17;;
72109;SDS011;59983;52.010;5.420;2023-09-12T11:27:33;38.13;;;22.37;;
72109;SDS011;59983;52.010;5.420;2023-09-12T11:30:33;35.28;;;22.67;;
72109;SDS011;59983;52.010;5.420;2023-09-12T11:33:03;34.75;;;21.65;;
72109;SDS011;59983;52.010;5.420;2023-09-12T11:35:35;38.70;;;22.90;;
72109;SDS011;59983;52.010;5.420;2023-09-12T11:38:04;36.80;;;23.17;;
72109;SDS011;59983;52.010;5.420;2023-09-12T11:43:02;40.70;;;24.85;;
72109;SDS011;59983;52.010;5.420;2023-09-12T11:45:28;38.35;;;25.45;;
72109;SDS011;59983;52.010;5.420;2023-09-12T11:47:55;36.53;;;24.67;;
72109;SDS011;59983;52.010;5.420;2023-09-12T11:50:26;36.25;;;24.88;;
72109;SDS011;59983;52.010;5.420;2023-09-12T11:53:02;36.20;;;24.57;;
72109;SDS011;59983;52.010;5.420;2023-09-12T11:55:34;35.28;;;23.60;;
72109;SDS011;59983;52.010;5.420;2023-09-12T11:58:13;30.17;;;20.42;;
72109;SDS011;59983;52.010;5.420;2023-09-12T12:00:49;34.15;;;22.45;;
72109;SDS011;59983;52.010;5.420;2023-09-12T12:03:18;34.00;;;22.48;;
72109;SDS011;59983;52.010;5.420;2023-09-12T12:05:46;31.17;;;20.57;;
72109;SDS011;59983;52.010;5.420;2023-09-12T12:08:14;29.80;;;20.40;;
72109;SDS011;59983;52.010;5.420;2023-09-12T12:10:56;31.23;;;20.73;;
72109;SDS011;59983;52.010;5.420;2023-09-12T12:13:25;31.20;;;21.40;;
72109;SDS011;59983;52.010;5.420;2023-09-12T12:15:52;32.60;;;23.00;;
72109;SDS011;59983;52.010;5.420;2023-09-12T12:18:19;32.70;;;20.77;;
72109;SDS011;59983;52.010;5.420;2023-09-12T12:20:46;28.00;;;19.15;;
72109;SDS011;59983;52.010;5.420;2023-09-12T12:23:12;26.58;;;18.88;;
72109;SDS011;59983;52.010;5.420;2023-09-12T12:25:39;24.90;;;16.45;;
72109;SDS011;59983;52.010;5.420;2023-09-12T12:28:06;30.67;;;18.50;;
72109;SDS011;59983;52.010;5.420;2023-09-12T12:30:33;22.30;;;16.80;;
72109;SDS011;59983;52.010;5.420;2023-09-12T12:33:01;27.98;;;18.73;;
72109;SDS011;59983;52.010;5.420;2023-09-12T12:36:02;21.20;;;15.60;;
72109;SDS011;59983;52.010;5.420;2023-09-12T12:38:33;26.42;;;18.65;;
72109;SDS011;59983;52.010;5.420;2023-09-12T12:41:22;29.30;;;20.08;;
72109;SDS011;59983;52.010;5.420;2023-09-12T12:44:05;27.47;;;19.80;;
72109;SDS011;59983;52.010;5.420;2023-09-12T12:46:32;19.33;;;14.52;;
72109;SDS011;59983;52.010;5.420;2023-09-12T12:48:59;18.55;;;15.15;;
72109;SDS011;59983;52.010;5.420;2023-09-12T12:51:25;27.40;;;15.93;;
72109;SDS011;59983;52.010;5.420;2023-09-12T12:53:53;18.98;;;14.15;;
72109;SDS011;59983;52.010;5.420;2023-09-12T12:56:30;18.83;;;14.30;;
72109;SDS011;59983;52.010;5.420;2023-09-12T12:58:58;26.23;;;18.63;;
72109;SDS011;59983;52.010;5.420;2023-09-12T13:01:29;24.23;;;17.13;;
72109;SDS011;59983;52.010;5.420;2023-09-12T13:03:56;23.75;;;16.70;;
72109;SDS011;59983;52.010;5.420;2023-09-12T13:06:23;24.70;;;17.85;;
72109;SDS011;59983;52.010;5.420;2023-09-12T13:08:52;31.37;;;17.67;;
72109;SDS011;59983;52.010;5.420;2023-09-12T13:11:18;17.35;;;13.23;;
72109;SDS011;59983;52.010;5.420;2023-09-12T13:13:45;21.60;;;13.90;;
72109;SDS011;59983;52.010;5.420;2023-09-12T13:16:14;19.00;;;13.95;;
72109;SDS011;59983;52.010;5.420;2023-09-12T13:18:42;20.48;;;13.75;;
72109;SDS011;59983;52.010;5.420;2023-09-12T13:21:10;20.30;;;13.70;;
72109;SDS011;59983;52.010;5.420;2023-09-12T13:23:37;17.17;;;13.10;;
72109;SDS011;59983;52.010;5.420;2023-09-12T13:26:05;15.10;;;8.82;;
72109;SDS011;59983;52.010;5.420;2023-09-12T13:28:33;19.63;;;14.13;;
72109;SDS011;59983;52.010;5.420;2023-09-12T13:31:00;20.38;;;14.38;;
72109;SDS011;59983;52.010;5.420;2023-09-12T13:33:26;23.80;;;15.40;;
72109;SDS011;59983;52.010;5.420;2023-09-12T13:35:53;25.40;;;15.93;;
72109;SDS011;59983;52.010;5.420;2023-09-12T13:38:20;19.88;;;14.00;;
72109;SDS011;59983;52.010;5.420;2023-09-12T13:40:47;23.77;;;18.20;;
72109;SDS011;59983;52.010;5.420;2023-09-12T13:43:14;23.48;;;17.45;;
72109;SDS011;59983;52.010;5.420;2023-09-12T13:45:41;26.97;;;17.33;;
72109;SDS011;59983;52.010;5.420;2023-09-12T13:48:08;23.67;;;16.45;;
72109;SDS011;59983;52.010;5.420;2023-09-12T13:50:35;24.75;;;16.30;;
72109;SDS011;59983;52.010;5.420;2023-09-12T13:53:02;19.85;;;14.60;;
72109;SDS011;59983;52.010;5.420;2023-09-12T13:55:33;21.35;;;14.35;;
72109;SDS011;59983;52.010;5.420;2023-09-12T13:58:21;19.20;;;12.00;;
72109;SDS011;59983;52.010;5.420;2023-09-12T14:00:48;14.00;;;11.13;;
72109;SDS011;59983;52.010;5.420;2023-09-12T14:03:15;16.17;;;10.50;;
72109;SDS011;59983;52.010;5.420;2023-09-12T14:05:42;14.85;;;11.45;;
72109;SDS011;59983;52.010;5.420;2023-09-12T14:08:09;12.82;;;10.25;;
72109;SDS011;59983;52.010;5.420;2023-09-12T14:10:37;14.10;;;9.93;;
72109;SDS011;59983;52.010;5.420;2023-09-12T14:13:07;10.90;;;7.43;;
72109;SDS011;59983;52.010;5.420;2023-09-12T14:15:37;6.50;;;5.10;;
72109;SDS011;59983;52.010;5.420;2023-09-12T14:18:04;10.20;;;8.30;;
72109;SDS011;59983;52.010;5.420;2023-09-12T14:20:31;8.45;;;7.40;;
72109;SDS011;59983;52.010;5.420;2023-09-12T14:22:58;16.47;;;8.93;;
72109;SDS011;59983;52.010;5.420;2023-09-12T14:25:25;9.70;;;6.20;;
72109;SDS011;59983;52.010;5.420;2023-09-12T14:27:53;9.27;;;6.82;;
72109;SDS011;59983;52.010;5.420;2023-09-12T14:30:20;10.30;;;6.93;;
72109;SDS011;59983;52.010;5.420;2023-09-12T14:32:48;9.38;;;7.38;;
72109;SDS011;59983;52.010;5.420;2023-09-12T14:35:15;8.30;;;7.10;;
72109;SDS011;59983;52.010;5.420;2023-09-12T14:37:42;12.23;;;8.93;;
72109;SDS011;59983;52.010;5.420;2023-09-12T14:40:09;12.13;;;8.20;;
72109;SDS011;59983;52.010;5.420;2023-09-12T14:42:37;11.82;;;7.90;;
72109;SDS011;59983;52.010;5.420;2023-09-12T14:45:04;11.13;;;8.27;;
72109;SDS011;59983;52.010;5.420;2023-09-12T14:47:32;9.10;;;7.67;;
72109;SDS011;59983;52.010;5.420;2023-09-12T14:49:59;10.65;;;8.77;;
72109;SDS011;59983;52.010;5.420;2023-09-12T14:52:26;7.72;;;6.93;;